Time;durP1;ratioP1;P1;durP2;ratioP2;P2;SDS_P1;SDS_P2;PMS_P1;PMS_P2;Temp;Humidity;BMP_temperature;BMP_pressure;BME280_temperature;BME280_humidity;BME280_pressure;Samples;Min_cycle;Max_cycle;Signal;HPM_P1;HPM_P2
2022/09/06 00:01:09;;;;;;;5.53;3.08;;;;;;;;;;5028741;28;20897;-72
2022/09/06 00:03:40;;;;;;;3.78;3.00;;;;;;;;;;5017001;28;20631;-72
2022/09/06 00:06:09;;;;;;;4.63;2.83;;;;;;;;;;5018527;28;20276;-73
2022/09/06 00:08:35;;;;;;;3.38;3.08;;;;;;;;;;5011097;28;20310;-72
2022/09/06 00:11:03;;;;;;;3.08;2.88;;;;;;;;;;5024777;28;20230;-71
2022/09/06 00:13:33;;;;;;;3.33;3.03;;;;;;;;;;5013490;28;20694;-71
2022/09/06 00:16:07;;;;;;;5.25;3.03;;;;;;;;;;5000214;28;20228;-70
2022/09/06 00:18:35;;;;;;;3.03;2.83;;;;;;;;;;5002143;28;20219;-72
2022/09/06 00:21:04;;;;;;;3.47;2.70;;;;;;;;;;4988957;28;20219;-72
2022/09/06 00:23:32;;;;;;;3.58;2.72;;;;;;;;;;4988585;28;20223;-72
2022/09/06 00:26:03;;;;;;;3.30;3.00;;;;;;;;;;5010403;28;20231;-72
2022/09/06 00:28:29;;;;;;;3.88;3.33;;;;;;;;;;5007145;28;20224;-72
2022/09/06 00:30:54;;;;;;;3.28;2.97;;;;;;;;;;4991443;28;20345;-72
2022/09/06 00:33:24;;;;;;;3.15;2.85;;;;;;;;;;5026123;28;20212;-72
2022/09/06 00:35:49;;;;;;;3.28;2.90;;;;;;;;;;5030330;28;20924;-72
2022/09/06 00:38:17;;;;;;;5.60;3.20;;;;;;;;;;5035751;28;20276;-71
2022/09/06 00:40:43;;;;;;;3.72;3.22;;;;;;;;;;5040847;28;20230;-72
2022/09/06 00:43:11;;;;;;;3.28;2.92;;;;;;;;;;5025208;28;20235;-73
2022/09/06 00:45:39;;;;;;;4.05;2.88;;;;;;;;;;4990920;28;20257;-73
2022/09/06 00:48:07;;;;;;;3.97;3.10;;;;;;;;;;5034110;28;20220;-72
2022/09/06 00:50:32;;;;;;;4.97;3.00;;;;;;;;;;4997662;28;20222;-72
2022/09/06 00:52:58;;;;;;;5.13;3.20;;;;;;;;;;5004770;28;20216;-72
2022/09/06 00:55:25;;;;;;;6.90;3.03;;;;;;;;;;5002116;28;20219;-71
2022/09/06 00:57:52;;;;;;;3.92;2.90;;;;;;;;;;5017840;28;20219;-72
2022/09/06 01:00:18;;;;;;;4.07;3.00;;;;;;;;;;5019142;28;21188;-72
2022/09/06 01:02:44;;;;;;;3.15;2.95;;;;;;;;;;5019416;28;20231;-72
2022/09/06 01:05:10;;;;;;;4.00;3.15;;;;;;;;;;5029742;28;20219;-73
2022/09/06 01:07:37;;;;;;;4.57;3.10;;;;;;;;;;5023998;28;20250;-73
2022/09/06 01:10:36;;;;;;;3.67;3.28;;;;;;;;;;5034791;28;20220;-72
2022/09/06 01:13:01;;;;;;;4.53;3.00;;;;;;;;;;5022624;28;20228;-72
2022/09/06 01:15:51;;;;;;;5.55;3.10;;;;;;;;;;5023526;28;20585;-72
2022/09/06 01:18:45;;;;;;;3.25;2.90;;;;;;;;;;5006991;28;20224;-71
2022/09/06 01:21:29;;;;;;;3.38;2.88;;;;;;;;;;5026579;28;20260;-72
2022/09/06 01:24:09;;;;;;;3.50;3.20;;;;;;;;;;5001068;28;20733;-73
2022/09/06 01:26:46;;;;;;;3.17;2.97;;;;;;;;;;5019878;28;20768;-72
2022/09/06 01:29:22;;;;;;;4.43;3.30;;;;;;;;;;5027587;28;20232;-72
2022/09/06 01:31:53;;;;;;;3.50;3.20;;;;;;;;;;5010002;28;20314;-72
2022/09/06 01:34:33;;;;;;;3.25;2.95;;;;;;;;;;5012016;28;20306;-72
2022/09/06 01:37:07;;;;;;;3.55;3.25;;;;;;;;;;5021639;28;20234;-73
2022/09/06 01:39:33;;;;;;;3.83;2.53;;;;;;;;;;4994216;28;20231;-72
2022/09/06 01:42:12;;;;;;;5.43;2.70;;;;;;;;;;5028314;28;20719;-72
2022/09/06 01:44:44;;;;;;;4.45;3.00;;;;;;;;;;5035514;28;20327;-73
2022/09/06 01:47:13;;;;;;;3.00;2.70;;;;;;;;;;5000747;28;20314;-73
2022/09/06 01:49:42;;;;;;;4.07;3.13;;;;;;;;;;5014135;28;20763;-73
2022/09/06 01:52:36;;;;;;;5.35;3.00;;;;;;;;;;5013395;28;20239;-72
2022/09/06 01:55:08;;;;;;;3.63;2.90;;;;;;;;;;5022174;28;20982;-73
2022/09/06 01:57:48;;;;;;;3.20;2.95;;;;;;;;;;4993396;28;20714;-73
2022/09/06 02:00:21;;;;;;;3.22;2.92;;;;;;;;;;5020263;28;20223;-73
2022/09/06 02:02:59;;;;;;;3.55;2.75;;;;;;;;;;5009661;28;20235;-72
2022/09/06 02:05:29;;;;;;;3.42;3.08;;;;;;;;;;5040839;28;20219;-73
2022/09/06 02:08:00;;;;;;;5.18;2.55;;;;;;;;;;5035266;28;20231;-72
2022/09/06 02:10:30;;;;;;;3.08;2.80;;;;;;;;;;4989733;28;20302;-71
2022/09/06 02:12:59;;;;;;;3.42;3.05;;;;;;;;;;4993471;28;20223;-72
2022/09/06 02:15:32;;;;;;;7.30;3.22;;;;;;;;;;4985026;28;20230;-73
2022/09/06 02:18:12;;;;;;;3.83;2.72;;;;;;;;;;5021676;28;20309;-73
2022/09/06 02:20:50;;;;;;;4.05;2.67;;;;;;;;;;5001941;28;20215;-72
2022/09/06 02:23:16;;;;;;;3.75;2.95;;;;;;;;;;5001093;28;20239;-73
2022/09/06 02:25:44;;;;;;;3.85;2.90;;;;;;;;;;5012245;28;20220;-72
2022/09/06 02:28:09;;;;;;;3.85;2.95;;;;;;;;;;5022259;28;20571;-72
2022/09/06 02:30:38;;;;;;;4.40;2.80;;;;;;;;;;4990711;28;20731;-72
2022/09/06 02:33:08;;;;;;;2.83;2.50;;;;;;;;;;4985459;28;20254;-73
2022/09/06 02:35:44;;;;;;;3.55;3.25;;;;;;;;;;5005492;28;20702;-72
2022/09/06 02:38:10;;;;;;;3.00;2.80;;;;;;;;;;5002527;28;20281;-72
2022/09/06 02:40:38;;;;;;;4.28;3.10;;;;;;;;;;5003965;28;20228;-72
2022/09/06 02:43:03;;;;;;;3.65;2.88;;;;;;;;;;4985336;28;20236;-72
2022/09/06 02:45:31;;;;;;;3.97;2.85;;;;;;;;;;5019700;28;20280;-73
2022/09/06 02:47:59;;;;;;;3.38;2.88;;;;;;;;;;5011572;28;20220;-73
2022/09/06 02:50:25;;;;;;;4.15;3.00;;;;;;;;;;5030212;28;20290;-73
2022/09/06 02:53:17;;;;;;;2.70;2.50;;;;;;;;;;5019452;28;20219;-73
2022/09/06 02:55:44;;;;;;;7.05;2.75;;;;;;;;;;5005447;28;20227;-73
2022/09/06 02:58:15;;;;;;;3.05;2.65;;;;;;;;;;5026754;28;20248;-73
2022/09/06 03:00:40;;;;;;;2.70;2.50;;;;;;;;;;5029136;28;20724;-72
2022/09/06 03:03:08;;;;;;;5.40;2.70;;;;;;;;;;5013787;28;20224;-72
2022/09/06 03:05:36;;;;;;;5.68;2.90;;;;;;;;;;5022470;28;20593;-74
2022/09/06 03:08:04;;;;;;;3.88;2.65;;;;;;;;;;5020753;28;20231;-72
2022/09/06 03:10:36;;;;;;;2.70;2.50;;;;;;;;;;5018004;28;20322;-71
2022/09/06 03:13:02;;;;;;;3.00;2.80;;;;;;;;;;5026723;28;20226;-72
2022/09/06 03:15:29;;;;;;;2.80;2.60;;;;;;;;;;5003331;28;20228;-72
2022/09/06 03:18:01;;;;;;;4.38;2.70;;;;;;;;;;4973871;28;20238;-72
2022/09/06 03:20:26;;;;;;;3.20;2.90;;;;;;;;;;5005975;28;20220;-74
2022/09/06 03:22:52;;;;;;;2.78;2.50;;;;;;;;;;4987095;28;20226;-73
2022/09/06 03:25:17;;;;;;;5.40;2.90;;;;;;;;;;5014018;28;20728;-72
2022/09/06 03:27:43;;;;;;;3.03;2.72;;;;;;;;;;5028990;28;20979;-72
2022/09/06 03:30:13;;;;;;;7.13;2.97;;;;;;;;;;4998597;28;20224;-72
2022/09/06 03:32:38;;;;;;;3.00;2.70;;;;;;;;;;5016589;28;20227;-72
2022/09/06 03:35:04;;;;;;;2.78;2.58;;;;;;;;;;4996179;28;20236;-73
2022/09/06 03:37:32;;;;;;;3.08;2.78;;;;;;;;;;5017196;28;20739;-73
2022/09/06 03:40:05;;;;;;;5.07;2.70;;;;;;;;;;5031073;28;20597;-73
2022/09/06 03:42:31;;;;;;;3.92;2.60;;;;;;;;;;5032022;28;20278;-74
2022/09/06 03:45:00;;;;;;;3.22;2.60;;;;;;;;;;5016510;28;20227;-73
2022/09/06 03:47:27;;;;;;;3.00;2.58;;;;;;;;;;5028922;28;20228;-73
2022/09/06 03:49:53;;;;;;;3.38;3.08;;;;;;;;;;5025228;28;21030;-73
2022/09/06 03:52:19;;;;;;;2.92;2.67;;;;;;;;;;5011864;28;20269;-73
2022/09/06 03:54:44;;;;;;;3.00;2.72;;;;;;;;;;5006439;28;20219;-74
2022/09/06 03:57:10;;;;;;;3.80;2.60;;;;;;;;;;5003039;28;20216;-74
2022/09/06 03:59:35;;;;;;;3.83;2.60;;;;;;;;;;4999822;28;20591;-75
2022/09/06 04:02:03;;;;;;;4.32;2.45;;;;;;;;;;5018632;28;20224;-74
2022/09/06 04:04:31;;;;;;;2.88;2.47;;;;;;;;;;5020754;28;20239;-74
2022/09/06 04:06:56;;;;;;;3.85;2.60;;;;;;;;;;5024106;28;20610;-73
2022/09/06 04:09:24;;;;;;;5.35;2.53;;;;;;;;;;5020486;28;20228;-74
2022/09/06 04:11:50;;;;;;;5.10;2.75;;;;;;;;;;5033916;28;20236;-73
2022/09/06 04:14:17;;;;;;;3.83;2.70;;;;;;;;;;5000951;28;20223;-73
2022/09/06 04:16:43;;;;;;;5.32;2.75;;;;;;;;;;5022033;28;20683;-73
2022/09/06 04:19:08;;;;;;;2.80;2.47;;;;;;;;;;5002099;28;20219;-73
2022/09/06 04:21:38;;;;;;;3.50;2.60;;;;;;;;;;5020478;28;20220;-74
2022/09/06 04:24:04;;;;;;;2.70;2.25;;;;;;;;;;5000242;28;20228;-75
2022/09/06 04:26:32;;;;;;;3.53;2.65;;;;;;;;;;5002515;28;20223;-74
2022/09/06 04:28:57;;;;;;;2.58;2.38;;;;;;;;;;5002466;28;20388;-74
2022/09/06 04:31:23;;;;;;;3.80;2.50;;;;;;;;;;5023061;28;20765;-74
2022/09/06 04:33:50;;;;;;;2.60;2.10;;;;;;;;;;4985697;28;20222;-75
2022/09/06 04:36:18;;;;;;;2.53;2.30;;;;;;;;;;5035109;28;20311;-73
2022/09/06 04:38:44;;;;;;;3.63;2.35;;;;;;;;;;5014065;28;20558;-72
2022/09/06 04:41:10;;;;;;;3.35;2.35;;;;;;;;;;5014074;28;20696;-73
2022/09/06 04:43:41;;;;;;;3.00;2.30;;;;;;;;;;4999362;28;20228;-72
2022/09/06 04:46:15;;;;;;;4.65;2.22;;;;;;;;;;5013335;28;20223;-72
2022/09/06 04:48:41;;;;;;;2.78;2.30;;;;;;;;;;5033650;28;20223;-73
2022/09/06 04:51:06;;;;;;;5.53;2.40;;;;;;;;;;5035634;28;20219;-75
2022/09/06 04:53:32;;;;;;;2.60;2.08;;;;;;;;;;5022002;28;20227;-73
2022/09/06 04:56:00;;;;;;;2.67;2.30;;;;;;;;;;5042224;28;20299;-73
2022/09/06 04:58:28;;;;;;;2.72;2.15;;;;;;;;;;4984456;28;20212;-73
2022/09/06 05:00:55;;;;;;;2.53;2.30;;;;;;;;;;5007215;28;20631;-73
2022/09/06 05:03:21;;;;;;;2.53;2.22;;;;;;;;;;4983775;28;20228;-73
2022/09/06 05:05:47;;;;;;;3.55;2.10;;;;;;;;;;4988758;28;20224;-73
2022/09/06 05:08:15;;;;;;;2.25;1.98;;;;;;;;;;5002525;28;20411;-73
2022/09/06 05:10:41;;;;;;;2.17;1.90;;;;;;;;;;5007146;28;20212;-73
2022/09/06 05:13:06;;;;;;;2.83;1.80;;;;;;;;;;5021972;28;20297;-73
2022/09/06 05:15:32;;;;;;;3.17;2.20;;;;;;;;;;5005032;28;20224;-73
2022/09/06 05:18:02;;;;;;;3.85;2.25;;;;;;;;;;4989652;28;20232;-73
2022/09/06 05:20:31;;;;;;;2.75;1.95;;;;;;;;;;4997146;28;20779;-72
2022/09/06 05:22:56;;;;;;;2.58;2.10;;;;;;;;;;5000418;28;20233;-72
2022/09/06 05:25:22;;;;;;;2.40;1.95;;;;;;;;;;5012326;28;20227;-73
2022/09/06 05:28:02;;;;;;;3.90;2.38;;;;;;;;;;5020432;28;20239;-72
2022/09/06 05:30:28;;;;;;;2.75;1.77;;;;;;;;;;4985498;28;20230;-72
2022/09/06 05:32:56;;;;;;;5.60;2.03;;;;;;;;;;4997760;28;20209;-72
2022/09/06 05:35:22;;;;;;;1.88;1.60;;;;;;;;;;5020786;28;20227;-72
2022/09/06 05:37:47;;;;;;;3.53;1.60;;;;;;;;;;5004894;28;20743;-72
2022/09/06 05:40:15;;;;;;;3.63;1.83;;;;;;;;;;5021212;28;20222;-73
2022/09/06 05:42:40;;;;;;;1.95;1.70;;;;;;;;;;5036613;28;20231;-73
2022/09/06 05:45:06;;;;;;;1.77;1.67;;;;;;;;;;4999618;28;20930;-73
2022/09/06 05:47:34;;;;;;;4.20;1.98;;;;;;;;;;5016144;28;20231;-73
2022/09/06 05:50:01;;;;;;;1.95;1.80;;;;;;;;;;4972130;28;20237;-73
2022/09/06 05:52:27;;;;;;;2.03;1.60;;;;;;;;;;4990713;28;20238;-73
2022/09/06 05:54:54;;;;;;;2.80;1.70;;;;;;;;;;5012589;28;20216;-73
2022/09/06 05:57:22;;;;;;;2.70;1.70;;;;;;;;;;4974913;28;20235;-73
2022/09/06 05:59:52;;;;;;;3.22;1.40;;;;;;;;;;5018818;28;20318;-73
2022/09/06 06:02:20;;;;;;;2.20;1.67;;;;;;;;;;5009706;28;20223;-73
2022/09/06 06:04:48;;;;;;;2.45;1.63;;;;;;;;;;5008247;28;20235;-74
2022/09/06 06:07:13;;;;;;;8.05;1.90;;;;;;;;;;4998806;28;20309;-72
2022/09/06 06:09:39;;;;;;;4.40;1.60;;;;;;;;;;4998227;28;20235;-73
2022/09/06 06:12:07;;;;;;;7.95;1.80;;;;;;;;;;5005926;28;20231;-73
2022/09/06 06:14:33;;;;;;;6.13;1.80;;;;;;;;;;4995275;28;20212;-72
2022/09/06 06:16:59;;;;;;;4.95;1.70;;;;;;;;;;4996965;28;20241;-73
2022/09/06 06:19:30;;;;;;;3.83;1.92;;;;;;;;;;5026520;28;20281;-73
2022/09/06 06:21:58;;;;;;;5.60;1.80;;;;;;;;;;5025387;28;20216;-73
2022/09/06 06:24:23;;;;;;;3.33;1.70;;;;;;;;;;5027209;28;20228;-73
2022/09/06 06:26:49;;;;;;;5.47;1.70;;;;;;;;;;5011363;28;20327;-71
2022/09/06 06:29:18;;;;;;;3.97;1.65;;;;;;;;;;5012933;28;20226;-71
2022/09/06 06:31:43;;;;;;;1.85;1.42;;;;;;;;;;5027266;28;20258;-72
2022/09/06 06:34:09;;;;;;;6.13;1.80;;;;;;;;;;4977651;28;20603;-71
2022/09/06 06:36:35;;;;;;;3.20;1.70;;;;;;;;;;4994943;28;20231;-72
2022/09/06 06:39:01;;;;;;;2.63;1.70;;;;;;;;;;5003705;28;20224;-73
2022/09/06 06:41:30;;;;;;;1.63;1.52;;;;;;;;;;5004165;28;20979;-72
2022/09/06 06:44:00;;;;;;;3.28;1.63;;;;;;;;;;5004141;28;20231;-73
2022/09/06 06:46:27;;;;;;;3.47;1.60;;;;;;;;;;5033543;28;20231;-73
2022/09/06 06:48:56;;;;;;;4.55;1.48;;;;;;;;;;4993542;28;20227;-72
2022/09/06 06:51:28;;;;;;;2.75;1.48;;;;;;;;;;5004920;28;20249;-73
2022/09/06 06:53:57;;;;;;;3.35;1.70;;;;;;;;;;5003827;28;20728;-72
2022/09/06 06:56:32;;;;;;;4.85;1.45;;;;;;;;;;5016051;28;20227;-73
2022/09/06 06:58:59;;;;;;;5.85;1.52;;;;;;;;;;5019216;28;20599;-73
2022/09/06 07:01:26;;;;;;;2.80;1.50;;;;;;;;;;4978978;28;20302;-72
2022/09/06 07:03:54;;;;;;;2.95;1.50;;;;;;;;;;5010277;28;20254;-73
2022/09/06 07:06:19;;;;;;;4.28;1.60;;;;;;;;;;4993910;28;20230;-74
2022/09/06 07:08:46;;;;;;;1.55;1.40;;;;;;;;;;5005119;28;20224;-73
2022/09/06 07:11:15;;;;;;;3.67;1.60;;;;;;;;;;4998432;28;20224;-73
2022/09/06 07:13:41;;;;;;;1.83;1.40;;;;;;;;;;5000726;28;20258;-73
2022/09/06 07:16:07;;;;;;;3.67;1.75;;;;;;;;;;5007230;28;20259;-73
2022/09/06 07:18:33;;;;;;;4.15;1.35;;;;;;;;;;5011355;28;20251;-74
2022/09/06 07:20:59;;;;;;;4.05;1.60;;;;;;;;;;4980405;28;20277;-72
2022/09/06 07:23:24;;;;;;;2.42;1.60;;;;;;;;;;5038208;28;20292;-73
2022/09/06 07:25:50;;;;;;;2.67;1.40;;;;;;;;;;5037411;28;20215;-74
2022/09/06 07:28:16;;;;;;;1.73;1.30;;;;;;;;;;5003586;28;20222;-72
2022/09/06 07:30:41;;;;;;;1.95;1.50;;;;;;;;;;5024361;28;20283;-73
2022/09/06 07:33:07;;;;;;;1.40;1.30;;;;;;;;;;5002572;28;20470;-74
2022/09/06 07:35:32;;;;;;;1.70;1.55;;;;;;;;;;5022497;28;20313;-73
2022/09/06 07:38:00;;;;;;;1.42;1.30;;;;;;;;;;5010229;28;20335;-73
2022/09/06 07:40:28;;;;;;;1.63;1.30;;;;;;;;;;5029528;28;20226;-73
2022/09/06 07:43:00;;;;;;;1.60;1.40;;;;;;;;;;4989807;28;20224;-72
2022/09/06 07:45:25;;;;;;;2.75;1.30;;;;;;;;;;5007687;28;20577;-72
2022/09/06 07:47:55;;;;;;;7.95;2.05;;;;;;;;;;5009354;28;20277;-73
2022/09/06 07:50:21;;;;;;;3.08;1.45;;;;;;;;;;5017856;28;20226;-72
2022/09/06 07:52:46;;;;;;;2.72;1.58;;;;;;;;;;5023997;28;20609;-72
2022/09/06 07:55:12;;;;;;;4.30;1.60;;;;;;;;;;4986567;28;20226;-72
2022/09/06 07:57:37;;;;;;;1.50;1.30;;;;;;;;;;5008796;28;20616;-74
2022/09/06 08:00:06;;;;;;;3.10;1.70;;;;;;;;;;5019761;28;20281;-72
2022/09/06 08:02:37;;;;;;;5.95;1.92;;;;;;;;;;5029936;28;21009;-73
2022/09/06 08:05:03;;;;;;;6.55;1.75;;;;;;;;;;5008305;28;20270;-73
2022/09/06 08:07:31;;;;;;;3.00;1.65;;;;;;;;;;5010401;28;20234;-73
2022/09/06 08:09:56;;;;;;;3.85;1.50;;;;;;;;;;5005536;28;20219;-73
2022/09/06 08:12:22;;;;;;;3.05;1.70;;;;;;;;;;5018935;28;20338;-73
2022/09/06 08:14:48;;;;;;;3.20;1.58;;;;;;;;;;5005591;28;20662;-74
2022/09/06 08:17:16;;;;;;;2.28;1.60;;;;;;;;;;5005207;28;20284;-73
2022/09/06 08:19:44;;;;;;;5.65;1.73;;;;;;;;;;5012772;28;20223;-73
2022/09/06 08:22:10;;;;;;;3.88;1.83;;;;;;;;;;4974676;28;20220;-73
2022/09/06 08:24:35;;;;;;;4.82;1.60;;;;;;;;;;5003332;28;20607;-73
2022/09/06 08:27:06;;;;;;;3.40;2.03;;;;;;;;;;5009348;28;20227;-72
2022/09/06 08:29:33;;;;;;;5.00;2.00;;;;;;;;;;5035427;28;20863;-73
2022/09/06 08:32:01;;;;;;;2.85;1.75;;;;;;;;;;5001431;28;20781;-73
2022/09/06 08:34:31;;;;;;;4.28;1.92;;;;;;;;;;5002367;28;20228;-73
2022/09/06 08:36:56;;;;;;;3.63;1.60;;;;;;;;;;4997671;28;20311;-72
2022/09/06 08:39:22;;;;;;;3.25;1.58;;;;;;;;;;5019197;28;20234;-72
2022/09/06 08:41:53;;;;;;;2.45;1.58;;;;;;;;;;5003823;28;20219;-72
2022/09/06 08:44:25;;;;;;;2.47;1.50;;;;;;;;;;5020135;28;20231;-73
2022/09/06 08:47:03;;;;;;;6.00;1.70;;;;;;;;;;5019113;28;20232;-73
2022/09/06 08:49:31;;;;;;;2.15;1.63;;;;;;;;;;5008461;28;20215;-72
2022/09/06 08:52:13;;;;;;;10.85;2.42;;;;;;;;;;4987858;28;21064;-73
2022/09/06 08:55:01;;;;;;;1.80;1.50;;;;;;;;;;5023008;28;20241;-73
2022/09/06 08:57:36;;;;;;;3.40;1.85;;;;;;;;;;5008153;28;20219;-74
2022/09/06 09:00:07;;;;;;;8.38;1.80;;;;;;;;;;5041816;28;20348;-72
2022/09/06 09:02:47;;;;;;;3.33;1.63;;;;;;;;;;4996605;28;20216;-72
2022/09/06 09:05:19;;;;;;;2.53;1.38;;;;;;;;;;4997625;28;20223;-72
2022/09/06 09:07:49;;;;;;;3.35;1.65;;;;;;;;;;5021453;28;20286;-74
2022/09/06 09:10:18;;;;;;;2.47;1.55;;;;;;;;;;5010345;28;20211;-72
2022/09/06 09:12:47;;;;;;;3.55;1.70;;;;;;;;;;5005063;28;20697;-72
2022/09/06 09:15:16;;;;;;;2.50;1.60;;;;;;;;;;5007338;28;20253;-73
2022/09/06 09:17:43;;;;;;;2.63;1.63;;;;;;;;;;4995635;28;20231;-73
2022/09/06 09:20:09;;;;;;;2.28;1.48;;;;;;;;;;4972417;28;20224;-72
2022/09/06 09:22:38;;;;;;;6.90;1.73;;;;;;;;;;4987889;28;20260;-72
2022/09/06 09:25:04;;;;;;;2.78;1.92;;;;;;;;;;5010912;28;20311;-74
2022/09/06 09:27:30;;;;;;;6.70;2.20;;;;;;;;;;5008690;28;20882;-73
2022/09/06 09:29:58;;;;;;;3.80;1.98;;;;;;;;;;5006647;28;20235;-73
2022/09/06 09:32:36;;;;;;;5.80;2.30;;;;;;;;;;5002479;28;20277;-73
2022/09/06 09:35:25;;;;;;;5.05;2.17;;;;;;;;;;5026651;28;20227;-73
2022/09/06 09:38:08;;;;;;;9.63;2.42;;;;;;;;;;5031267;28;20251;-72
2022/09/06 09:40:43;;;;;;;3.50;2.05;;;;;;;;;;5005542;28;20584;-73
2022/09/06 09:43:19;;;;;;;5.35;1.95;;;;;;;;;;4994306;28;20301;-72
2022/09/06 09:45:48;;;;;;;5.30;2.00;;;;;;;;;;5024295;28;20346;-71
2022/09/06 09:48:21;;;;;;;5.63;2.83;;;;;;;;;;5003383;28;20234;-71
2022/09/06 09:50:49;;;;;;;5.35;1.95;;;;;;;;;;4977560;28;20226;-72
2022/09/06 09:53:20;;;;;;;4.18;2.22;;;;;;;;;;4986150;28;20278;-72
2022/09/06 09:55:53;;;;;;;2.10;1.90;;;;;;;;;;5013975;28;20632;-72
2022/09/06 09:58:25;;;;;;;2.38;2.10;;;;;;;;;;5000168;28;20235;-73
2022/09/06 10:01:42;;;;;;;2.67;2.10;;;;;;;;;;5011158;28;20326;-73
2022/09/06 10:04:10;;;;;;;5.43;1.90;;;;;;;;;;4957947;28;20290;-73
2022/09/06 10:06:35;;;;;;;2.08;1.83;;;;;;;;;;5017519;28;20251;-75
2022/09/06 10:09:20;;;;;;;1.98;1.88;;;;;;;;;;5004646;28;20228;-75
2022/09/06 10:11:56;;;;;;;3.42;2.00;;;;;;;;;;5009984;28;20235;-73
2022/09/06 10:14:39;;;;;;;7.47;2.40;;;;;;;;;;5028131;28;20253;-72
2022/09/06 10:17:04;;;;;;;5.00;2.40;;;;;;;;;;5021873;28;20232;-72
2022/09/06 10:19:39;;;;;;;3.78;2.22;;;;;;;;;;5025727;28;20712;-72
2022/09/06 10:22:07;;;;;;;5.13;2.20;;;;;;;;;;5010511;28;20228;-71
2022/09/06 10:24:50;;;;;;;4.72;2.15;;;;;;;;;;5026170;28;20288;-73
2022/09/06 10:27:17;;;;;;;4.07;1.58;;;;;;;;;;5034098;28;20239;-72
2022/09/06 10:30:04;;;;;;;4.47;1.90;;;;;;;;;;4987386;28;20220;-71
2022/09/06 10:32:39;;;;;;;5.18;2.22;;;;;;;;;;5008940;28;20216;-71
2022/09/06 10:35:08;;;;;;;4.60;2.20;;;;;;;;;;5011142;28;20344;-73
2022/09/06 10:38:06;;;;;;;2.17;1.98;;;;;;;;;;5027570;28;20296;-73
2022/09/06 10:40:56;;;;;;;2.78;2.20;;;;;;;;;;5027407;28;20231;-72
2022/09/06 10:43:21;;;;;;;3.55;2.10;;;;;;;;;;5031911;28;20744;-72
2022/09/06 10:46:03;;;;;;;3.05;2.00;;;;;;;;;;5006628;28;20223;-72
2022/09/06 10:48:30;;;;;;;2.35;2.15;;;;;;;;;;5021454;28;20713;-72
2022/09/06 10:51:22;;;;;;;2.05;1.88;;;;;;;;;;5037530;28;20321;-72
2022/09/06 10:54:05;;;;;;;2.90;2.10;;;;;;;;;;5002182;28;20253;-72
2022/09/06 10:56:51;;;;;;;4.30;2.35;;;;;;;;;;5032513;28;20238;-72
2022/09/06 10:59:25;;;;;;;3.88;2.45;;;;;;;;;;5004390;28;20250;-72
2022/09/06 11:01:57;;;;;;;3.13;2.00;;;;;;;;;;5005689;28;20904;-72
2022/09/06 11:04:37;;;;;;;4.18;2.42;;;;;;;;;;5022429;28;21367;-72
2022/09/06 11:07:11;;;;;;;2.28;2.08;;;;;;;;;;5009103;28;20254;-72
2022/09/06 11:09:40;;;;;;;2.75;2.38;;;;;;;;;;5015813;28;20593;-73
2022/09/06 11:12:15;;;;;;;2.92;2.13;;;;;;;;;;5005726;28;20408;-72
2022/09/06 11:14:40;;;;;;;3.05;2.42;;;;;;;;;;5009521;28;20304;-73
2022/09/06 11:17:14;;;;;;;3.00;2.45;;;;;;;;;;4999713;28;20227;-73
2022/09/06 11:20:00;;;;;;;5.00;2.70;;;;;;;;;;5002541;28;20251;-73
2022/09/06 11:22:34;;;;;;;2.58;2.30;;;;;;;;;;4993324;28;20886;-73
2022/09/06 11:25:33;;;;;;;2.80;2.40;;;;;;;;;;5017295;28;20236;-73
2022/09/06 11:27:59;;;;;;;2.55;2.35;;;;;;;;;;5034405;28;20230;-73
2022/09/06 11:30:27;;;;;;;5.13;2.30;;;;;;;;;;5008218;28;20683;-72
2022/09/06 11:33:22;;;;;;;3.15;2.30;;;;;;;;;;4985241;28;20281;-71
2022/09/06 11:35:53;;;;;;;3.70;2.58;;;;;;;;;;5001581;28;20758;-72
2022/09/06 11:38:23;;;;;;;4.63;2.60;;;;;;;;;;5017395;28;20219;-72
2022/09/06 11:40:58;;;;;;;3.65;2.40;;;;;;;;;;5009512;28;20219;-72
2022/09/06 11:43:46;;;;;;;3.33;2.88;;;;;;;;;;4991799;28;20226;-74
2022/09/06 11:46:36;;;;;;;5.40;2.70;;;;;;;;;;5008945;28;20284;-71
2022/09/06 11:49:03;;;;;;;4.18;2.70;;;;;;;;;;5037173;28;20261;-72
2022/09/06 11:51:39;;;;;;;2.70;2.42;;;;;;;;;;5021772;28;20966;-73
2022/09/06 11:54:13;;;;;;;2.90;2.65;;;;;;;;;;4991031;28;20322;-72
2022/09/06 11:56:49;;;;;;;3.03;2.72;;;;;;;;;;5010877;28;20222;-71
2022/09/06 11:59:15;;;;;;;3.03;2.78;;;;;;;;;;4992246;28;20254;-72
2022/09/06 12:01:41;;;;;;;4.03;3.00;;;;;;;;;;5037843;28;20239;-71
2022/09/06 12:04:07;;;;;;;3.08;2.78;;;;;;;;;;4981831;28;20268;-73
2022/09/06 12:06:40;;;;;;;3.67;3.10;;;;;;;;;;5002689;28;20292;-70
2022/09/06 12:09:39;;;;;;;3.30;2.80;;;;;;;;;;5020274;28;20228;-72
2022/09/06 12:12:07;;;;;;;4.07;2.78;;;;;;;;;;5009256;28;20272;-72
2022/09/06 12:14:45;;;;;;;5.50;2.78;;;;;;;;;;5022240;28;20228;-72
2022/09/06 12:17:14;;;;;;;2.88;2.63;;;;;;;;;;5006190;28;20233;-71
2022/09/06 12:19:43;;;;;;;2.83;2.53;;;;;;;;;;5034610;28;20232;-72
2022/09/06 12:22:37;;;;;;;2.60;2.40;;;;;;;;;;5020779;28;20228;-71
2022/09/06 12:25:14;;;;;;;3.20;2.90;;;;;;;;;;5021783;28;20227;-71
2022/09/06 12:27:56;;;;;;;3.20;2.90;;;;;;;;;;5008815;28;20230;-70
2022/09/06 12:30:36;;;;;;;3.17;2.80;;;;;;;;;;4994666;28;20222;-72
2022/09/06 12:33:09;;;;;;;5.65;3.00;;;;;;;;;;5004340;28;20231;-71
2022/09/06 12:35:34;;;;;;;5.57;3.10;;;;;;;;;;4992785;28;20227;-72
2022/09/06 12:38:05;;;;;;;3.25;2.85;;;;;;;;;;5011964;28;20281;-72
2022/09/06 12:40:39;;;;;;;3.00;2.80;;;;;;;;;;5005546;28;20220;-72
2022/09/06 12:43:05;;;;;;;4.50;2.60;;;;;;;;;;4983674;28;20297;-72
2022/09/06 12:45:30;;;;;;;3.75;3.10;;;;;;;;;;4991575;28;20223;-72
2022/09/06 12:48:07;;;;;;;4.75;3.08;;;;;;;;;;4995682;28;20270;-72
2022/09/06 12:50:33;;;;;;;5.00;2.88;;;;;;;;;;5004720;28;20218;-72
2022/09/06 12:53:00;;;;;;;3.53;2.92;;;;;;;;;;5019159;28;20949;-72
2022/09/06 12:55:26;;;;;;;3.55;2.90;;;;;;;;;;5025013;28;20224;-72
2022/09/06 12:57:55;;;;;;;2.70;2.50;;;;;;;;;;5035059;28;20293;-72
2022/09/06 13:00:24;;;;;;;4.20;2.55;;;;;;;;;;4985920;28;20228;-72
2022/09/06 13:03:08;;;;;;;2.90;2.42;;;;;;;;;;4990039;28;20227;-72
2022/09/06 13:05:39;;;;;;;3.20;2.30;;;;;;;;;;5008767;28;20224;-71
2022/09/06 13:08:06;;;;;;;3.30;2.53;;;;;;;;;;4997691;28;20228;-71
2022/09/06 13:10:32;;;;;;;3.92;2.60;;;;;;;;;;4992935;28;20227;-72
2022/09/06 13:12:57;;;;;;;2.92;2.38;;;;;;;;;;5013026;28;20281;-71
2022/09/06 13:15:30;;;;;;;4.00;2.50;;;;;;;;;;4992160;28;20705;-72
2022/09/06 13:18:17;;;;;;;5.65;2.50;;;;;;;;;;5024650;28;20239;-73
2022/09/06 13:20:55;;;;;;;3.67;2.50;;;;;;;;;;5014594;28;20242;-73
2022/09/06 13:23:24;;;;;;;2.90;2.40;;;;;;;;;;5019129;28;20227;-72
2022/09/06 13:25:50;;;;;;;4.30;2.40;;;;;;;;;;4988175;28;20592;-75
2022/09/06 13:28:30;;;;;;;7.28;2.83;;;;;;;;;;5011552;28;20277;-75
2022/09/06 13:31:05;;;;;;;3.60;2.92;;;;;;;;;;5009643;28;20230;-74
2022/09/06 13:33:30;;;;;;;4.35;3.17;;;;;;;;;;5004284;28;20223;-72
2022/09/06 13:36:17;;;;;;;6.35;2.90;;;;;;;;;;4987327;28;20211;-73
2022/09/06 13:38:44;;;;;;;4.95;3.05;;;;;;;;;;5007261;28;20716;-73
2022/09/06 13:41:24;;;;;;;4.10;2.50;;;;;;;;;;4987802;28;20215;-73
2022/09/06 13:44:16;;;;;;;5.53;3.13;;;;;;;;;;5004300;28;20267;-70
2022/09/06 13:46:45;;;;;;;2.97;2.72;;;;;;;;;;5019185;28;20223;-71
2022/09/06 13:49:11;;;;;;;3.88;3.33;;;;;;;;;;5004661;28;20233;-72
2022/09/06 13:51:39;;;;;;;2.90;2.70;;;;;;;;;;4989247;28;20228;-72
2022/09/06 13:54:06;;;;;;;6.22;3.00;;;;;;;;;;5005542;28;20224;-71
2022/09/06 13:56:34;;;;;;;3.15;2.70;;;;;;;;;;5004434;28;20231;-71
2022/09/06 13:58:59;;;;;;;4.22;3.00;;;;;;;;;;4991162;28;20227;-71
2022/09/06 14:01:30;;;;;;;5.03;2.70;;;;;;;;;;5016711;28;20239;-72
2022/09/06 14:03:56;;;;;;;4.75;2.80;;;;;;;;;;5007448;28;20236;-73
2022/09/06 14:06:21;;;;;;;5.10;2.83;;;;;;;;;;5017258;28;20228;-73
2022/09/06 14:08:49;;;;;;;3.47;2.58;;;;;;;;;;5006363;28;20220;-74
2022/09/06 14:11:15;;;;;;;2.55;2.35;;;;;;;;;;4995785;28;20278;-72
2022/09/06 14:13:41;;;;;;;3.63;2.90;;;;;;;;;;5008081;28;20294;-72
2022/09/06 14:16:06;;;;;;;4.07;2.58;;;;;;;;;;4991030;28;20236;-73
2022/09/06 14:18:32;;;;;;;3.80;2.72;;;;;;;;;;4987018;28;20223;-73
2022/09/06 14:20:58;;;;;;;2.70;2.50;;;;;;;;;;4987938;28;20294;-72
2022/09/06 14:23:24;;;;;;;3.03;2.72;;;;;;;;;;5016769;28;20730;-73
2022/09/06 14:26:02;;;;;;;4.28;2.95;;;;;;;;;;5001295;28;20230;-72
2022/09/06 14:28:29;;;;;;;3.00;2.70;;;;;;;;;;5001668;28;20231;-72
2022/09/06 14:30:55;;;;;;;2.83;2.63;;;;;;;;;;4988877;28;20732;-71
2022/09/06 14:33:20;;;;;;;6.00;2.78;;;;;;;;;;5018528;28;20209;-72
2022/09/06 14:35:47;;;;;;;2.80;2.60;;;;;;;;;;5019058;28;20223;-72
2022/09/06 14:38:12;;;;;;;3.00;2.72;;;;;;;;;;4985830;28;20219;-72
2022/09/06 14:40:42;;;;;;;2.85;2.65;;;;;;;;;;5004584;28;20286;-72
2022/09/06 14:43:11;;;;;;;3.25;2.47;;;;;;;;;;5004088;28;20305;-72
2022/09/06 14:45:37;;;;;;;3.78;2.85;;;;;;;;;;5007204;28;20220;-72
2022/09/06 14:48:02;;;;;;;6.45;2.70;;;;;;;;;;5033831;28;20330;-72
2022/09/06 14:50:28;;;;;;;3.15;2.78;;;;;;;;;;4990138;28;20320;-72
2022/09/06 14:52:57;;;;;;;3.10;2.80;;;;;;;;;;5020956;28;20219;-73
2022/09/06 14:55:23;;;;;;;8.40;4.13;;;;;;;;;;5019074;28;20600;-72
2022/09/06 14:57:49;;;;;;;4.93;3.22;;;;;;;;;;5017469;28;20224;-72
2022/09/06 15:00:14;;;;;;;3.58;2.78;;;;;;;;;;4984421;28;20256;-73
2022/09/06 15:02:40;;;;;;;3.53;2.55;;;;;;;;;;5002872;28;20234;-72